sensor_id;sensor_type;location;lat;lon;timestamp;P1;durP1;ratioP1;P2;durP2;ratioP2
38972;SDS011;25333;50.762;4.470;2023-04-24T00:00:00;17.38;;;12.20;;
38972;SDS011;25333;50.762;4.470;2023-04-24T00:02:28;18.08;;;11.88;;
38972;SDS011;25333;50.762;4.470;2023-04-24T00:04:55;18.25;;;12.32;;
38972;SDS011;25333;50.762;4.470;2023-04-24T00:07:21;21.35;;;12.95;;
38972;SDS011;25333;50.762;4.470;2023-04-24T00:09:47;19.05;;;13.35;;
38972;SDS011;25333;50.762;4.470;2023-04-24T00:12:13;17.40;;;11.90;;
38972;SDS011;25333;50.762;4.470;2023-04-24T00:14:38;22.10;;;13.15;;
38972;SDS011;25333;50.762;4.470;2023-04-24T00:17:04;18.88;;;12.63;;
38972;SDS011;25333;50.762;4.470;2023-04-24T00:19:30;22.10;;;13.13;;
38972;SDS011;25333;50.762;4.470;2023-04-24T00:21:55;19.75;;;12.55;;
38972;SDS011;25333;50.762;4.470;2023-04-24T00:24:21;20.27;;;12.90;;
38972;SDS011;25333;50.762;4.470;2023-04-24T00:26:47;20.95;;;13.10;;
38972;SDS011;25333;50.762;4.470;2023-04-24T00:29:12;19.60;;;13.50;;
38972;SDS011;25333;50.762;4.470;2023-04-24T00:31:38;19.17;;;12.10;;
38972;SDS011;25333;50.762;4.470;2023-04-24T00:34:04;21.45;;;13.40;;
38972;SDS011;25333;50.762;4.470;2023-04-24T00:36:30;19.17;;;12.55;;
38972;SDS011;25333;50.762;4.470;2023-04-24T00:38:57;19.73;;;13.30;;
38972;SDS011;25333;50.762;4.470;2023-04-24T00:41:22;18.52;;;12.52;;
38972;SDS011;25333;50.762;4.470;2023-04-24T00:43:50;22.13;;;12.02;;
38972;SDS011;25333;50.762;4.470;2023-04-24T00:46:16;21.55;;;13.00;;
38972;SDS011;25333;50.762;4.470;2023-04-24T00:48:42;21.37;;;12.60;;
38972;SDS011;25333;50.762;4.470;2023-04-24T00:51:08;19.73;;;13.30;;
38972;SDS011;25333;50.762;4.470;2023-04-24T00:53:34;20.40;;;13.63;;
38972;SDS011;25333;50.762;4.470;2023-04-24T00:56:00;21.43;;;14.10;;
38972;SDS011;25333;50.762;4.470;2023-04-24T00:58:27;24.20;;;13.27;;
38972;SDS011;25333;50.762;4.470;2023-04-24T01:00:53;17.30;;;12.85;;
38972;SDS011;25333;50.762;4.470;2023-04-24T01:03:20;17.83;;;12.52;;
38972;SDS011;25333;50.762;4.470;2023-04-24T01:05:47;19.73;;;13.50;;
38972;SDS011;25333;50.762;4.470;2023-04-24T01:08:14;20.55;;;14.00;;
38972;SDS011;25333;50.762;4.470;2023-04-24T01:10:40;21.67;;;13.13;;
38972;SDS011;25333;50.762;4.470;2023-04-24T01:13:09;16.52;;;13.60;;
38972;SDS011;25333;50.762;4.470;2023-04-24T01:15:35;21.73;;;14.48;;
38972;SDS011;25333;50.762;4.470;2023-04-24T01:18:01;21.38;;;13.75;;
38972;SDS011;25333;50.762;4.470;2023-04-24T01:20:30;22.17;;;14.05;;
38972;SDS011;25333;50.762;4.470;2023-04-24T01:23:07;21.60;;;12.77;;
38972;SDS011;25333;50.762;4.470;2023-04-24T01:25:33;19.00;;;13.25;;
38972;SDS011;25333;50.762;4.470;2023-04-24T01:28:00;20.33;;;14.15;;
38972;SDS011;25333;50.762;4.470;2023-04-24T01:30:27;22.20;;;13.75;;
38972;SDS011;25333;50.762;4.470;2023-04-24T01:32:55;22.48;;;12.15;;
38972;SDS011;25333;50.762;4.470;2023-04-24T01:35:21;17.50;;;12.38;;
38972;SDS011;25333;50.762;4.470;2023-04-24T01:40:16;17.70;;;12.45;;
38972;SDS011;25333;50.762;4.470;2023-04-24T01:42:42;17.50;;;12.45;;
38972;SDS011;25333;50.762;4.470;2023-04-24T01:45:10;19.55;;;13.55;;
38972;SDS011;25333;50.762;4.470;2023-04-24T01:47:37;18.38;;;13.15;;
38972;SDS011;25333;50.762;4.470;2023-04-24T01:50:03;21.67;;;13.88;;
38972;SDS011;25333;50.762;4.470;2023-04-24T01:52:30;17.20;;;13.43;;
38972;SDS011;25333;50.762;4.470;2023-04-24T01:55:01;19.13;;;14.05;;
38972;SDS011;25333;50.762;4.470;2023-04-24T01:57:30;21.50;;;14.32;;
38972;SDS011;25333;50.762;4.470;2023-04-24T01:59:56;19.25;;;14.05;;
38972;SDS011;25333;50.762;4.470;2023-04-24T02:02:22;18.83;;;14.07;;
38972;SDS011;25333;50.762;4.470;2023-04-24T02:04:54;19.23;;;13.93;;
38972;SDS011;25333;50.762;4.470;2023-04-24T02:07:20;19.17;;;14.33;;
38972;SDS011;25333;50.762;4.470;2023-04-24T02:09:46;22.90;;;16.00;;
38972;SDS011;25333;50.762;4.470;2023-04-24T02:12:12;23.55;;;15.70;;
38972;SDS011;25333;50.762;4.470;2023-04-24T02:14:38;23.85;;;16.30;;
38972;SDS011;25333;50.762;4.470;2023-04-24T02:17:03;20.63;;;15.83;;
38972;SDS011;25333;50.762;4.470;2023-04-24T02:19:30;19.67;;;14.93;;
38972;SDS011;25333;50.762;4.470;2023-04-24T02:21:56;23.88;;;15.63;;
38972;SDS011;25333;50.762;4.470;2023-04-24T02:24:21;24.30;;;16.70;;
38972;SDS011;25333;50.762;4.470;2023-04-24T02:26:47;20.37;;;14.80;;
38972;SDS011;25333;50.762;4.470;2023-04-24T02:29:13;27.20;;;16.58;;
38972;SDS011;25333;50.762;4.470;2023-04-24T02:31:38;20.45;;;15.38;;
38972;SDS011;25333;50.762;4.470;2023-04-24T02:34:04;21.43;;;14.97;;
38972;SDS011;25333;50.762;4.470;2023-04-24T02:36:30;19.33;;;14.27;;
38972;SDS011;25333;50.762;4.470;2023-04-24T02:38:56;18.85;;;14.93;;
38972;SDS011;25333;50.762;4.470;2023-04-24T02:41:22;22.33;;;14.93;;
38972;SDS011;25333;50.762;4.470;2023-04-24T02:43:47;19.83;;;13.82;;
38972;SDS011;25333;50.762;4.470;2023-04-24T02:46:13;17.50;;;13.77;;
38972;SDS011;25333;50.762;4.470;2023-04-24T02:48:39;17.83;;;13.80;;
38972;SDS011;25333;50.762;4.470;2023-04-24T02:51:05;17.83;;;13.30;;
38972;SDS011;25333;50.762;4.470;2023-04-24T02:53:31;16.88;;;12.88;;
38972;SDS011;25333;50.762;4.470;2023-04-24T02:55:57;15.40;;;12.03;;
38972;SDS011;25333;50.762;4.470;2023-04-24T02:58:23;18.53;;;12.80;;
38972;SDS011;25333;50.762;4.470;2023-04-24T03:00:48;17.63;;;12.48;;
38972;SDS011;25333;50.762;4.470;2023-04-24T03:03:17;15.23;;;11.50;;
38972;SDS011;25333;50.762;4.470;2023-04-24T03:05:43;14.60;;;11.63;;
38972;SDS011;25333;50.762;4.470;2023-04-24T03:08:08;14.93;;;11.50;;
38972;SDS011;25333;50.762;4.470;2023-04-24T03:10:35;16.08;;;11.60;;
38972;SDS011;25333;50.762;4.470;2023-04-24T03:13:01;15.23;;;10.82;;
38972;SDS011;25333;50.762;4.470;2023-04-24T03:15:26;15.20;;;11.53;;
38972;SDS011;25333;50.762;4.470;2023-04-24T03:17:52;18.40;;;11.75;;
38972;SDS011;25333;50.762;4.470;2023-04-24T03:20:18;15.07;;;10.27;;
38972;SDS011;25333;50.762;4.470;2023-04-24T03:22:44;16.67;;;10.87;;
38972;SDS011;25333;50.762;4.470;2023-04-24T03:25:09;12.73;;;9.90;;
38972;SDS011;25333;50.762;4.470;2023-04-24T03:27:35;15.48;;;11.23;;
38972;SDS011;25333;50.762;4.470;2023-04-24T03:30:01;15.60;;;11.87;;
38972;SDS011;25333;50.762;4.470;2023-04-24T03:32:27;20.52;;;11.88;;
38972;SDS011;25333;50.762;4.470;2023-04-24T03:34:52;14.38;;;10.65;;
38972;SDS011;25333;50.762;4.470;2023-04-24T03:37:18;15.73;;;10.80;;
38972;SDS011;25333;50.762;4.470;2023-04-24T03:39:44;15.65;;;10.20;;
38972;SDS011;25333;50.762;4.470;2023-04-24T03:42:10;12.57;;;10.73;;
38972;SDS011;25333;50.762;4.470;2023-04-24T03:44:35;16.00;;;10.40;;
38972;SDS011;25333;50.762;4.470;2023-04-24T03:47:01;15.02;;;9.77;;
38972;SDS011;25333;50.762;4.470;2023-04-24T03:49:27;15.98;;;9.35;;
38972;SDS011;25333;50.762;4.470;2023-04-24T03:51:53;15.70;;;9.43;;
38972;SDS011;25333;50.762;4.470;2023-04-24T03:54:18;18.20;;;10.50;;
38972;SDS011;25333;50.762;4.470;2023-04-24T03:56:44;14.13;;;9.45;;
38972;SDS011;25333;50.762;4.470;2023-04-24T03:59:10;13.60;;;8.55;;
38972;SDS011;25333;50.762;4.470;2023-04-24T04:01:36;13.90;;;8.80;;
38972;SDS011;25333;50.762;4.470;2023-04-24T04:04:08;8.25;;;7.18;;
38972;SDS011;25333;50.762;4.470;2023-04-24T04:06:34;9.52;;;6.82;;
38972;SDS011;25333;50.762;4.470;2023-04-24T04:09:01;8.48;;;4.97;;
38972;SDS011;25333;50.762;4.470;2023-04-24T04:11:28;5.68;;;3.20;;
38972;SDS011;25333;50.762;4.470;2023-04-24T04:13:53;4.70;;;3.47;;
38972;SDS011;25333;50.762;4.470;2023-04-24T04:16:19;6.85;;;3.95;;
38972;SDS011;25333;50.762;4.470;2023-04-24T04:18:45;7.25;;;4.13;;
38972;SDS011;25333;50.762;4.470;2023-04-24T04:21:11;6.35;;;4.75;;
38972;SDS011;25333;50.762;4.470;2023-04-24T04:23:37;7.13;;;4.77;;
38972;SDS011;25333;50.762;4.470;2023-04-24T04:26:03;7.45;;;5.25;;
38972;SDS011;25333;50.762;4.470;2023-04-24T04:28:29;6.97;;;4.90;;
38972;SDS011;25333;50.762;4.470;2023-04-24T04:30:56;8.15;;;5.47;;
38972;SDS011;25333;50.762;4.470;2023-04-24T04:33:23;7.50;;;5.53;;
38972;SDS011;25333;50.762;4.470;2023-04-24T04:35:49;9.05;;;5.95;;
38972;SDS011;25333;50.762;4.470;2023-04-24T04:38:17;10.23;;;6.07;;
38972;SDS011;25333;50.762;4.470;2023-04-24T04:40:43;9.10;;;6.35;;
38972;SDS011;25333;50.762;4.470;2023-04-24T04:43:09;7.22;;;5.57;;
38972;SDS011;25333;50.762;4.470;2023-04-24T04:45:36;7.53;;;5.47;;
38972;SDS011;25333;50.762;4.470;2023-04-24T04:48:03;8.73;;;5.63;;
38972;SDS011;25333;50.762;4.470;2023-04-24T04:50:31;7.10;;;5.82;;
38972;SDS011;25333;50.762;4.470;2023-04-24T04:52:56;9.38;;;6.00;;
38972;SDS011;25333;50.762;4.470;2023-04-24T04:55:22;8.07;;;5.67;;
38972;SDS011;25333;50.762;4.470;2023-04-24T04:57:48;8.93;;;6.85;;
38972;SDS011;25333;50.762;4.470;2023-04-24T05:00:14;9.48;;;6.40;;
38972;SDS011;25333;50.762;4.470;2023-04-24T05:02:46;10.70;;;7.25;;
38972;SDS011;25333;50.762;4.470;2023-04-24T05:05:11;11.93;;;7.97;;
38972;SDS011;25333;50.762;4.470;2023-04-24T05:07:37;11.82;;;7.75;;
38972;SDS011;25333;50.762;4.470;2023-04-24T05:10:03;9.77;;;7.67;;
38972;SDS011;25333;50.762;4.470;2023-04-24T05:12:29;13.23;;;8.47;;
38972;SDS011;25333;50.762;4.470;2023-04-24T05:14:57;11.93;;;8.32;;
38972;SDS011;25333;50.762;4.470;2023-04-24T05:17:26;13.35;;;8.68;;
38972;SDS011;25333;50.762;4.470;2023-04-24T05:19:52;13.20;;;8.40;;
38972;SDS011;25333;50.762;4.470;2023-04-24T05:22:34;14.63;;;10.13;;
38972;SDS011;25333;50.762;4.470;2023-04-24T05:25:05;15.52;;;10.07;;
38972;SDS011;25333;50.762;4.470;2023-04-24T05:27:47;15.68;;;10.23;;
38972;SDS011;25333;50.762;4.470;2023-04-24T05:30:13;15.85;;;10.57;;
38972;SDS011;25333;50.762;4.470;2023-04-24T05:32:39;15.55;;;11.20;;
38972;SDS011;25333;50.762;4.470;2023-04-24T05:35:10;15.17;;;10.80;;
38972;SDS011;25333;50.762;4.470;2023-04-24T05:37:42;19.42;;;11.18;;
38972;SDS011;25333;50.762;4.470;2023-04-24T05:40:10;16.52;;;11.85;;
38972;SDS011;25333;50.762;4.470;2023-04-24T05:42:39;17.80;;;11.93;;
38972;SDS011;25333;50.762;4.470;2023-04-24T05:45:30;19.45;;;12.23;;
38972;SDS011;25333;50.762;4.470;2023-04-24T05:47:56;15.13;;;10.90;;
38972;SDS011;25333;50.762;4.470;2023-04-24T05:50:24;16.00;;;11.43;;
38972;SDS011;25333;50.762;4.470;2023-04-24T05:53:01;16.63;;;12.80;;
38972;SDS011;25333;50.762;4.470;2023-04-24T05:55:36;17.05;;;12.50;;
38972;SDS011;25333;50.762;4.470;2023-04-24T05:58:05;16.65;;;13.00;;
38972;SDS011;25333;50.762;4.470;2023-04-24T06:00:31;18.07;;;12.50;;
38972;SDS011;25333;50.762;4.470;2023-04-24T06:02:58;17.63;;;11.73;;
38972;SDS011;25333;50.762;4.470;2023-04-24T06:05:25;18.88;;;12.35;;
38972;SDS011;25333;50.762;4.470;2023-04-24T06:07:51;18.35;;;11.82;;
38972;SDS011;25333;50.762;4.470;2023-04-24T06:10:20;16.20;;;11.32;;
38972;SDS011;25333;50.762;4.470;2023-04-24T06:13:01;17.45;;;11.50;;
38972;SDS011;25333;50.762;4.470;2023-04-24T06:46:35;19.10;;;13.30;;
38972;SDS011;25333;50.762;4.470;2023-04-24T06:58:04;22.00;;;16.48;;
38972;SDS011;25333;50.762;4.470;2023-04-24T07:00:31;24.48;;;16.98;;
38972;SDS011;25333;50.762;4.470;2023-04-24T07:02:56;28.37;;;16.83;;
38972;SDS011;25333;50.762;4.470;2023-04-24T07:05:22;27.40;;;16.52;;
38972;SDS011;25333;50.762;4.470;2023-04-24T07:07:48;25.57;;;16.80;;
38972;SDS011;25333;50.762;4.470;2023-04-24T07:10:14;26.92;;;17.83;;
38972;SDS011;25333;50.762;4.470;2023-04-24T07:12:40;26.53;;;17.17;;
38972;SDS011;25333;50.762;4.470;2023-04-24T07:15:06;28.33;;;16.80;;
38972;SDS011;25333;50.762;4.470;2023-04-24T07:17:33;25.83;;;16.52;;
38972;SDS011;25333;50.762;4.470;2023-04-24T07:20:00;25.30;;;16.80;;
38972;SDS011;25333;50.762;4.470;2023-04-24T07:22:26;27.90;;;17.80;;
38972;SDS011;25333;50.762;4.470;2023-04-24T07:24:51;25.73;;;18.37;;
38972;SDS011;25333;50.762;4.470;2023-04-24T07:27:17;23.58;;;16.42;;
38972;SDS011;25333;50.762;4.470;2023-04-24T07:29:43;26.00;;;17.57;;
38972;SDS011;25333;50.762;4.470;2023-04-24T07:32:08;24.77;;;17.02;;
38972;SDS011;25333;50.762;4.470;2023-04-24T07:34:34;26.10;;;16.30;;
38972;SDS011;25333;50.762;4.470;2023-04-24T07:37:00;25.10;;;16.43;;
38972;SDS011;25333;50.762;4.470;2023-04-24T07:39:26;21.52;;;14.75;;
38972;SDS011;25333;50.762;4.470;2023-04-24T07:41:52;22.73;;;15.32;;
38972;SDS011;25333;50.762;4.470;2023-04-24T07:44:18;23.75;;;16.15;;
38972;SDS011;25333;50.762;4.470;2023-04-24T07:46:44;26.47;;;16.37;;
38972;SDS011;25333;50.762;4.470;2023-04-24T07:49:09;28.65;;;16.60;;
38972;SDS011;25333;50.762;4.470;2023-04-24T07:51:35;21.45;;;15.50;;
38972;SDS011;25333;50.762;4.470;2023-04-24T07:54:03;24.67;;;15.13;;
38972;SDS011;25333;50.762;4.470;2023-04-24T07:56:31;27.17;;;16.20;;
38972;SDS011;25333;50.762;4.470;2023-04-24T07:58:57;21.50;;;15.30;;
38972;SDS011;25333;50.762;4.470;2023-04-24T08:01:23;21.03;;;15.67;;
38972;SDS011;25333;50.762;4.470;2023-04-24T08:03:50;24.60;;;15.77;;
38972;SDS011;25333;50.762;4.470;2023-04-24T08:06:16;21.20;;;13.93;;
38972;SDS011;25333;50.762;4.470;2023-04-24T08:08:42;20.67;;;14.50;;
38972;SDS011;25333;50.762;4.470;2023-04-24T08:11:07;21.23;;;13.65;;
38972;SDS011;25333;50.762;4.470;2023-04-24T08:13:33;24.43;;;14.30;;
38972;SDS011;25333;50.762;4.470;2023-04-24T08:15:59;23.45;;;14.65;;
38972;SDS011;25333;50.762;4.470;2023-04-24T08:18:24;18.53;;;14.00;;
38972;SDS011;25333;50.762;4.470;2023-04-24T08:20:51;18.30;;;12.05;;
38972;SDS011;25333;50.762;4.470;2023-04-24T08:23:17;22.47;;;13.13;;
38972;SDS011;25333;50.762;4.470;2023-04-24T08:25:42;20.55;;;12.93;;
38972;SDS011;25333;50.762;4.470;2023-04-24T08:28:08;21.25;;;13.25;;
38972;SDS011;25333;50.762;4.470;2023-04-24T08:30:35;20.77;;;11.82;;
38972;SDS011;25333;50.762;4.470;2023-04-24T08:33:01;23.40;;;12.68;;
38972;SDS011;25333;50.762;4.470;2023-04-24T08:35:27;15.37;;;11.30;;
38972;SDS011;25333;50.762;4.470;2023-04-24T08:37:53;19.27;;;11.82;;
38972;SDS011;25333;50.762;4.470;2023-04-24T08:40:19;22.43;;;12.87;;
38972;SDS011;25333;50.762;4.470;2023-04-24T08:42:54;20.08;;;13.15;;
38972;SDS011;25333;50.762;4.470;2023-04-24T08:45:21;18.45;;;12.77;;
38972;SDS011;25333;50.762;4.470;2023-04-24T08:47:48;17.23;;;11.68;;
38972;SDS011;25333;50.762;4.470;2023-04-24T08:50:14;16.23;;;10.75;;
38972;SDS011;25333;50.762;4.470;2023-04-24T08:52:41;19.20;;;10.80;;
38972;SDS011;25333;50.762;4.470;2023-04-24T08:55:07;18.10;;;10.23;;
38972;SDS011;25333;50.762;4.470;2023-04-24T08:57:34;14.03;;;10.23;;
38972;SDS011;25333;50.762;4.470;2023-04-24T09:00:01;15.60;;;9.55;;
38972;SDS011;25333;50.762;4.470;2023-04-24T09:02:26;13.13;;;8.60;;
38972;SDS011;25333;50.762;4.470;2023-04-24T09:04:53;11.77;;;8.63;;
38972;SDS011;25333;50.762;4.470;2023-04-24T09:07:22;12.32;;;8.00;;
38972;SDS011;25333;50.762;4.470;2023-04-24T09:09:51;8.10;;;6.30;;
38972;SDS011;25333;50.762;4.470;2023-04-24T09:12:17;11.95;;;7.35;;
38972;SDS011;25333;50.762;4.470;2023-04-24T09:14:44;11.65;;;7.78;;
38972;SDS011;25333;50.762;4.470;2023-04-24T09:17:11;10.77;;;7.25;;
38972;SDS011;25333;50.762;4.470;2023-04-24T09:19:37;10.88;;;5.70;;
38972;SDS011;25333;50.762;4.470;2023-04-24T09:22:06;10.13;;;6.03;;
38972;SDS011;25333;50.762;4.470;2023-04-24T09:24:33;9.52;;;5.05;;
38972;SDS011;25333;50.762;4.470;2023-04-24T09:27:00;8.18;;;4.53;;
38972;SDS011;25333;50.762;4.470;2023-04-24T09:29:26;11.25;;;5.13;;
38972;SDS011;25333;50.762;4.470;2023-04-24T09:31:53;8.77;;;4.25;;
38972;SDS011;25333;50.762;4.470;2023-04-24T09:34:22;8.20;;;5.03;;
38972;SDS011;25333;50.762;4.470;2023-04-24T09:36:49;11.73;;;5.60;;
38972;SDS011;25333;50.762;4.470;2023-04-24T09:39:15;9.77;;;6.20;;
38972;SDS011;25333;50.762;4.470;2023-04-24T09:41:45;9.75;;;4.95;;
38972;SDS011;25333;50.762;4.470;2023-04-24T09:44:16;9.40;;;5.30;;
38972;SDS011;25333;50.762;4.470;2023-04-24T09:46:56;12.35;;;5.63;;
38972;SDS011;25333;50.762;4.470;2023-04-24T09:54:56;12.13;;;5.63;;
38972;SDS011;25333;50.762;4.470;2023-04-24T09:57:22;11.80;;;6.00;;
38972;SDS011;25333;50.762;4.470;2023-04-24T09:59:47;11.27;;;6.23;;
38972;SDS011;25333;50.762;4.470;2023-04-24T10:02:17;11.00;;;5.28;;
38972;SDS011;25333;50.762;4.470;2023-04-24T10:04:53;8.50;;;4.70;;
38972;SDS011;25333;50.762;4.470;2023-04-24T10:07:20;8.93;;;5.28;;
38972;SDS011;25333;50.762;4.470;2023-04-24T10:09:46;11.13;;;4.60;;
38972;SDS011;25333;50.762;4.470;2023-04-24T10:12:12;12.48;;;7.28;;
38972;SDS011;25333;50.762;4.470;2023-04-24T10:14:40;8.13;;;5.28;;
38972;SDS011;25333;50.762;4.470;2023-04-24T10:17:06;6.88;;;4.43;;
38972;SDS011;25333;50.762;4.470;2023-04-24T10:19:31;7.70;;;3.20;;
38972;SDS011;25333;50.762;4.470;2023-04-24T10:21:58;8.77;;;4.20;;
38972;SDS011;25333;50.762;4.470;2023-04-24T10:24:25;6.07;;;4.20;;
38972;SDS011;25333;50.762;4.470;2023-04-24T10:26:51;7.70;;;4.03;;
38972;SDS011;25333;50.762;4.470;2023-04-24T10:29:18;9.93;;;4.53;;
38972;SDS011;25333;50.762;4.470;2023-04-24T10:31:44;8.20;;;4.30;;
38972;SDS011;25333;50.762;4.470;2023-04-24T10:34:11;5.97;;;3.60;;
38972;SDS011;25333;50.762;4.470;2023-04-24T10:36:38;8.25;;;3.95;;
38972;SDS011;25333;50.762;4.470;2023-04-24T10:39:08;7.45;;;4.03;;
38972;SDS011;25333;50.762;4.470;2023-04-24T10:41:38;9.60;;;4.82;;
38972;SDS011;25333;50.762;4.470;2023-04-24T10:44:07;8.75;;;4.65;;
38972;SDS011;25333;50.762;4.470;2023-04-24T10:46:35;7.47;;;4.57;;
38972;SDS011;25333;50.762;4.470;2023-04-24T10:49:05;8.65;;;4.70;;
38972;SDS011;25333;50.762;4.470;2023-04-24T10:56:50;11.05;;;5.25;;
38972;SDS011;25333;50.762;4.470;2023-04-24T10:59:28;8.13;;;4.53;;
38972;SDS011;25333;50.762;4.470;2023-04-24T11:02:00;9.15;;;4.93;;
38972;SDS011;25333;50.762;4.470;2023-04-24T11:04:29;7.82;;;4.72;;
38972;SDS011;25333;50.762;4.470;2023-04-24T11:06:56;7.43;;;5.32;;
38972;SDS011;25333;50.762;4.470;2023-04-24T11:09:22;7.65;;;5.25;;
38972;SDS011;25333;50.762;4.470;2023-04-24T11:11:53;10.90;;;5.38;;
38972;SDS011;25333;50.762;4.470;2023-04-24T11:17:32;9.13;;;6.03;;
38972;SDS011;25333;50.762;4.470;2023-04-24T11:20:03;11.30;;;6.00;;
38972;SDS011;25333;50.762;4.470;2023-04-24T11:22:32;11.03;;;6.50;;
38972;SDS011;25333;50.762;4.470;2023-04-24T11:25:02;8.98;;;5.97;;
38972;SDS011;25333;50.762;4.470;2023-04-24T11:27:29;7.30;;;5.15;;
38972;SDS011;25333;50.762;4.470;2023-04-24T11:32:23;11.15;;;6.60;;
38972;SDS011;25333;50.762;4.470;2023-04-24T11:35:05;9.47;;;5.67;;
38972;SDS011;25333;50.762;4.470;2023-04-24T11:37:38;10.98;;;6.03;;
38972;SDS011;25333;50.762;4.470;2023-04-24T11:40:05;12.23;;;6.18;;
38972;SDS011;25333;50.762;4.470;2023-04-24T11:42:44;10.65;;;5.72;;
38972;SDS011;25333;50.762;4.470;2023-04-24T11:45:12;13.20;;;6.57;;
38972;SDS011;25333;50.762;4.470;2023-04-24T11:47:39;9.13;;;5.90;;
38972;SDS011;25333;50.762;4.470;2023-04-24T11:50:07;11.13;;;6.22;;
38972;SDS011;25333;50.762;4.470;2023-04-24T11:52:41;8.75;;;6.13;;
38972;SDS011;25333;50.762;4.470;2023-04-24T11:55:22;11.23;;;6.72;;
38972;SDS011;25333;50.762;4.470;2023-04-24T11:57:52;10.80;;;6.63;;
38972;SDS011;25333;50.762;4.470;2023-04-24T12:00:25;9.55;;;6.15;;
38972;SDS011;25333;50.762;4.470;2023-04-24T12:02:51;8.37;;;6.73;;
38972;SDS011;25333;50.762;4.470;2023-04-24T12:05:31;9.05;;;6.53;;
38972;SDS011;25333;50.762;4.470;2023-04-24T12:07:59;10.82;;;6.82;;
38972;SDS011;25333;50.762;4.470;2023-04-24T12:10:31;7.70;;;6.13;;
38972;SDS011;25333;50.762;4.470;2023-04-24T12:12:58;9.68;;;6.20;;
38972;SDS011;25333;50.762;4.470;2023-04-24T12:15:25;11.65;;;5.82;;
38972;SDS011;25333;50.762;4.470;2023-04-24T12:17:52;14.85;;;6.70;;
38972;SDS011;25333;50.762;4.470;2023-04-24T12:20:23;10.00;;;5.47;;
38972;SDS011;25333;50.762;4.470;2023-04-24T12:22:57;8.15;;;6.10;;
38972;SDS011;25333;50.762;4.470;2023-04-24T12:25:26;8.55;;;5.40;;
38972;SDS011;25333;50.762;4.470;2023-04-24T12:30:42;7.95;;;5.30;;
38972;SDS011;25333;50.762;4.470;2023-04-24T12:33:19;8.73;;;6.22;;
38972;SDS011;25333;50.762;4.470;2023-04-24T12:35:47;9.30;;;6.30;;
38972;SDS011;25333;50.762;4.470;2023-04-24T12:38:16;8.77;;;4.67;;
38972;SDS011;25333;50.762;4.470;2023-04-24T12:40:46;9.03;;;5.17;;
38972;SDS011;25333;50.762;4.470;2023-04-24T12:43:18;9.20;;;6.30;;
38972;SDS011;25333;50.762;4.470;2023-04-24T12:45:44;8.88;;;5.32;;
38972;SDS011;25333;50.762;4.470;2023-04-24T12:48:11;7.07;;;5.78;;
38972;SDS011;25333;50.762;4.470;2023-04-24T12:50:37;7.95;;;5.05;;
38972;SDS011;25333;50.762;4.470;2023-04-24T12:53:29;7.68;;;4.70;;
38972;SDS011;25333;50.762;4.470;2023-04-24T12:55:56;8.35;;;5.15;;
38972;SDS011;25333;50.762;4.470;2023-04-24T12:58:25;8.23;;;4.63;;
38972;SDS011;25333;50.762;4.470;2023-04-24T13:04:06;7.45;;;5.35;;
38972;SDS011;25333;50.762;4.470;2023-04-24T13:06:37;7.75;;;5.07;;
38972;SDS011;25333;50.762;4.470;2023-04-24T13:09:43;8.10;;;5.38;;
38972;SDS011;25333;50.762;4.470;2023-04-24T13:12:22;8.75;;;6.55;;
38972;SDS011;25333;50.762;4.470;2023-04-24T13:15:20;7.63;;;5.65;;
38972;SDS011;25333;50.762;4.470;2023-04-24T13:18:21;10.52;;;6.38;;
38972;SDS011;25333;50.762;4.470;2023-04-24T13:20:54;6.85;;;4.90;;
38972;SDS011;25333;50.762;4.470;2023-04-24T13:23:58;7.67;;;4.90;;
38972;SDS011;25333;50.762;4.470;2023-04-24T13:26:36;8.30;;;4.93;;
38972;SDS011;25333;50.762;4.470;2023-04-24T13:29:22;10.40;;;4.65;;
38972;SDS011;25333;50.762;4.470;2023-04-24T13:32:00;6.53;;;4.18;;
38972;SDS011;25333;50.762;4.470;2023-04-24T13:34:26;6.05;;;3.90;;
38972;SDS011;25333;50.762;4.470;2023-04-24T13:36:55;6.22;;;3.53;;
38972;SDS011;25333;50.762;4.470;2023-04-24T13:39:22;7.83;;;3.87;;
38972;SDS011;25333;50.762;4.470;2023-04-24T13:41:54;7.35;;;3.42;;
38972;SDS011;25333;50.762;4.470;2023-04-24T13:44:22;5.27;;;3.37;;
38972;SDS011;25333;50.762;4.470;2023-04-24T13:46:50;5.60;;;2.88;;
38972;SDS011;25333;50.762;4.470;2023-04-24T13:49:18;7.30;;;3.47;;
38972;SDS011;25333;50.762;4.470;2023-04-24T13:51:45;5.88;;;3.30;;
38972;SDS011;25333;50.762;4.470;2023-04-24T13:54:23;8.20;;;3.42;;
38972;SDS011;25333;50.762;4.470;2023-04-24T13:56:51;5.05;;;3.28;;
38972;SDS011;25333;50.762;4.470;2023-04-24T13:59:17;5.25;;;3.65;;
38972;SDS011;25333;50.762;4.470;2023-04-24T14:01:51;6.00;;;3.43;;
38972;SDS011;25333;50.762;4.470;2023-04-24T14:04:28;4.83;;;2.83;;
38972;SDS011;25333;50.762;4.470;2023-04-24T14:06:54;6.53;;;3.33;;
38972;SDS011;25333;50.762;4.470;2023-04-24T14:09:28;4.35;;;2.72;;
38972;SDS011;25333;50.762;4.470;2023-04-24T14:11:56;4.97;;;2.75;;
38972;SDS011;25333;50.762;4.470;2023-04-24T14:14:24;6.18;;;2.80;;
38972;SDS011;25333;50.762;4.470;2023-04-24T14:16:51;4.97;;;2.97;;
38972;SDS011;25333;50.762;4.470;2023-04-24T14:19:17;5.07;;;2.25;;
38972;SDS011;25333;50.762;4.470;2023-04-24T14:22:02;4.90;;;2.30;;
38972;SDS011;25333;50.762;4.470;2023-04-24T14:24:28;5.43;;;2.67;;
38972;SDS011;25333;50.762;4.470;2023-04-24T14:26:54;4.57;;;2.50;;
38972;SDS011;25333;50.762;4.470;2023-04-24T14:29:21;4.93;;;2.00;;
38972;SDS011;25333;50.762;4.470;2023-04-24T14:31:47;5.35;;;2.30;;
38972;SDS011;25333;50.762;4.470;2023-04-24T14:34:13;2.40;;;2.07;;
38972;SDS011;25333;50.762;4.470;2023-04-24T14:36:40;2.97;;;1.90;;
38972;SDS011;25333;50.762;4.470;2023-04-24T14:39:06;6.07;;;2.00;;
38972;SDS011;25333;50.762;4.470;2023-04-24T14:41:33;3.60;;;1.67;;
38972;SDS011;25333;50.762;4.470;2023-04-24T14:44:01;3.97;;;1.92;;
38972;SDS011;25333;50.762;4.470;2023-04-24T14:46:48;3.72;;;1.25;;
38972;SDS011;25333;50.762;4.470;2023-04-24T14:49:26;3.90;;;1.70;;
38972;SDS011;25333;50.762;4.470;2023-04-24T14:52:19;4.43;;;1.75;;
38972;SDS011;25333;50.762;4.470;2023-04-24T14:55:28;3.90;;;2.10;;
38972;SDS011;25333;50.762;4.470;2023-04-24T14:58:47;3.80;;;1.83;;
38972;SDS011;25333;50.762;4.470;2023-04-24T15:01:19;3.90;;;1.37;;
38972;SDS011;25333;50.762;4.470;2023-04-24T15:04:00;4.70;;;1.30;;
38972;SDS011;25333;50.762;4.470;2023-04-24T15:06:29;6.03;;;1.63;;
38972;SDS011;25333;50.762;4.470;2023-04-24T15:09:22;3.28;;;1.00;;
38972;SDS011;25333;50.762;4.470;2023-04-24T15:12:25;8.88;;;1.60;;
38972;SDS011;25333;50.762;4.470;2023-04-24T15:15:13;2.97;;;1.88;;
38972;SDS011;25333;50.762;4.470;2023-04-24T15:18:01;3.40;;;1.30;;
38972;SDS011;25333;50.762;4.470;2023-04-24T15:20:58;2.15;;;1.30;;
38972;SDS011;25333;50.762;4.470;2023-04-24T15:23:24;3.43;;;1.70;;
38972;SDS011;25333;50.762;4.470;2023-04-24T15:26:05;3.45;;;1.45;;
38972;SDS011;25333;50.762;4.470;2023-04-24T15:28:31;2.83;;;1.30;;
38972;SDS011;25333;50.762;4.470;2023-04-24T15:30:59;6.27;;;2.00;;
38972;SDS011;25333;50.762;4.470;2023-04-24T15:33:28;2.25;;;1.17;;
38972;SDS011;25333;50.762;4.470;2023-04-24T15:36:24;2.85;;;1.15;;
38972;SDS011;25333;50.762;4.470;2023-04-24T15:38:50;2.35;;;1.10;;
38972;SDS011;25333;50.762;4.470;2023-04-24T15:41:16;2.03;;;1.15;;
38972;SDS011;25333;50.762;4.470;2023-04-24T15:43:41;3.33;;;1.27;;
38972;SDS011;25333;50.762;4.470;2023-04-24T15:46:08;3.97;;;0.98;;
38972;SDS011;25333;50.762;4.470;2023-04-24T15:48:41;2.95;;;0.85;;